Mc Guire Air Force Base
KWRI : now visible

Airfield :











YOU CAN JOIN US ON...

 
LOGIN :

Register | Disclaimer

   EN    FR    IT 

 









Legend :    VFR   Marginal VFR   IFR   Intensive IFR   Very Intensive IFR
Visi :
Ceiling :
>= 8 km
>= 3000ft
5 to 8 km
1000 to 3000 ft
1500m to 5 km
500 to 1000 ft
800 to 1500m
200 to 500 ft
< 800m
< 200 ft
Symbols :   Thunderstorms  Fog  Heavy snow  Heavy precipitations  Wind > 20 kt






- Airport Elevation : 131 ft
- IATA code : WRI


KWRI - Mc Guire Air Force Base

CURRENT METAR :
  • 110756Z 31006KT 7SM -SN OVC009 01/01 A3017 RMK AO2A RAE48SNB48 SLP217 P0004 T00120005 $

EXPIRED METARs :
  • 110736Z 30007KT 10SM -RA BKN009 01/01 A3017 RMK AO2A BKN V OVC CIG 008 RWY18 SLP217 $
  • 110726Z 30008KT 10SM -RA BKN010 02/01 A3016 RMK AO2A CIG 009 RWY18 PRESRR SLP213 $
  • 110711Z 31008KT 7SM -RA OVC009 02/01 A3014 RMK AO2A CIG 008 RWY06 SLP207 $
  • 110656Z 30008KT 8SM RA BKN010 02/01 A3015 RMK AO2A RAE33RAB35 CIG 010V012 CIG 009 RWY06 CIG 009 RWY18 SLP210 P0001 T00220010 $
  • 110635Z 31012G16KT 10SM -RA SCT012 SCT050 03/01 A3014 RMK AO2A RAE33RAB35 SLP207 $
  • 110633Z 30010G16KT 10SM SCT012 SCT050 03/01 A3014 RMK AO2A RAE33 SLP207 $
  • 110556Z 30009KT 10SM -RA FEW050 03/01 A3011 RMK AO2A RAE0457RAB10E32RAB38 SLPNO P0002 60007 T00320009 10119 20032 50015 $
  • 110538Z 30006KT 10SM -RA BKN055 04/01 A3011 RMK AO2A RAE0457RAB10E32RAB38 SLPNO $

TAF TAF KWRI
Valid from the 11 at 02:00 until the 12 at 08:00 UTC


110200Z 1102/1208 29012G18KT 9000 -SHRA BKN025 OVC050 QNH3005INS
TEMPO 1102/1105 30015G25KT BKN015
BECMG 1107/1108 34008KT 8000 -RASN BR OVC015 610159 QNH3012INS
BECMG 1109/1110 34005KT 3200 -SN BR OVC008 620089 QNH3016INS
TEMPO 1110/1114 1200 -SN BR
BECMG 1116/1117 27010G18KT 9999 NSW BKN040 600403 QNH3022INS
BECMG 1120/1121 28010KT 9999 FEW050 QNH3022INS TX08/1102Z TN01/1112Z



MET'MAP, your aeronautical weather chart ! - Copyright ORBIFLY December 2007 - Disclaimer

ORBIFLY MET'MAP TEAM :

Programming & Development : Alexandra Zaïnal
Concept & original design : Baudouin d'Aumeries
Assistance for programming : Marc-Olivier Méhu
Technical & hardware support : Manuel Goepfert

Contact : metmap@orbifly.com




SOURCES & CREDITS :

   NOAA       Earth
Advisory